Time;durP1;ratioP1;P1;durP2;ratioP2;P2;SDS_P1;SDS_P2;PMS_P1;PMS_P2;Temp;Humidity;BMP_temperature;BMP_pressure;BME280_temperature;BME280_humidity;BME280_pressure;Samples;Min_cycle;Max_cycle;Signal;HPM_P1;HPM_P2
2024/01/23 00:00:08;;;;;;;17.65;3.17;;;;;;;8.87;67.22;101619.28;5011213;28;20034;-60
2024/01/23 00:02:33;;;;;;;13.45;3.45;;;;;;;8.79;67.19;101623.16;4998640;28;20425;-60
2024/01/23 00:04:59;;;;;;;12.38;3.47;;;;;;;8.82;67.48;101634.63;5001928;28;20035;-60
2024/01/23 00:07:24;;;;;;;17.27;3.13;;;;;;;8.79;67.08;101639.78;5008653;28;20037;-60
2024/01/23 00:09:49;;;;;;;16.10;2.90;;;;;;;8.77;66.76;101650.22;5009374;28;20025;-60
2024/01/23 00:12:14;;;;;;;13.95;3.78;;;;;;;8.82;67.01;101656.78;5002270;28;20045;-60
2024/01/23 00:14:40;;;;;;;11.75;3.10;;;;;;;8.84;67.30;101660.19;5016860;28;20036;-60
2024/01/23 00:17:05;;;;;;;18.42;4.03;;;;;;;8.82;66.90;101667.00;5008504;28;20033;-60
2024/01/23 00:19:30;;;;;;;17.42;3.42;;;;;;;8.83;67.26;101669.56;5009337;28;20022;-60
2024/01/23 00:21:55;;;;;;;12.98;3.65;;;;;;;8.86;67.03;101690.41;5009629;28;20146;-60
2024/01/23 00:24:21;;;;;;;17.00;3.35;;;;;;;8.86;66.84;101682.09;5008612;28;20030;-60
2024/01/23 00:26:46;;;;;;;21.08;4.85;;;;;;;8.85;67.17;101688.72;5009495;28;20087;-60
2024/01/23 00:29:11;;;;;;;17.75;4.97;;;;;;;8.80;66.74;101669.13;5005119;28;20109;-59
2024/01/23 00:31:37;;;;;;;17.88;3.53;;;;;;;8.84;67.37;101687.00;5036221;28;20036;-60
2024/01/23 00:34:03;;;;;;;15.55;3.20;;;;;;;8.84;67.07;101698.06;5023347;28;20109;-60
2024/01/23 00:36:29;;;;;;;15.75;3.92;;;;;;;8.85;66.99;101700.66;5008726;28;20541;-60
2024/01/23 00:38:54;;;;;;;19.67;3.47;;;;;;;8.78;67.19;101710.91;5009545;28;20046;-59
2024/01/23 00:41:19;;;;;;;16.30;4.07;;;;;;;8.75;67.04;101713.25;5009345;28;20042;-59
2024/01/23 00:43:45;;;;;;;16.00;3.90;;;;;;;8.79;67.21;101708.97;5002804;28;20034;-60
2024/01/23 00:46:10;;;;;;;13.73;3.70;;;;;;;8.77;67.06;101716.66;5015617;28;20061;-60
2024/01/23 00:48:35;;;;;;;20.60;4.50;;;;;;;8.74;67.15;101728.16;5018775;28;20022;-60
2024/01/23 00:51:00;;;;;;;16.55;4.05;;;;;;;8.74;67.17;101722.63;5008512;28;20416;-60
2024/01/23 00:53:26;;;;;;;16.33;3.47;;;;;;;8.71;66.79;101720.31;5008882;28;20030;-60
2024/01/23 00:55:51;;;;;;;16.35;4.00;;;;;;;8.70;67.45;101722.22;5000269;28;20478;-60
2024/01/23 00:58:16;;;;;;;15.73;3.17;;;;;;;8.71;67.10;101723.91;4996517;28;20030;-61
2024/01/23 01:00:44;;;;;;;17.98;3.42;;;;;;;8.72;67.23;101731.13;5014135;28;20033;-61
2024/01/23 01:03:13;;;;;;;18.75;3.55;;;;;;;8.67;67.30;101747.56;5009387;28;20033;-61
2024/01/23 01:05:38;;;;;;;20.08;4.13;;;;;;;8.71;67.27;101745.22;5008223;28;20053;-60
2024/01/23 01:08:04;;;;;;;16.30;3.63;;;;;;;8.66;67.38;101743.09;5008941;28;20046;-60
2024/01/23 01:10:30;;;;;;;15.95;3.20;;;;;;;8.70;66.62;101736.06;5017264;28;20042;-60
2024/01/23 01:12:55;;;;;;;18.58;3.97;;;;;;;8.68;67.12;101751.16;5027946;28;20388;-60
2024/01/23 01:15:20;;;;;;;18.08;3.78;;;;;;;8.65;66.90;101757.16;4997871;28;20168;-60
2024/01/23 01:17:46;;;;;;;18.58;4.63;;;;;;;8.67;67.16;101753.09;5011269;28;20025;-61
2024/01/23 01:20:11;;;;;;;18.77;4.07;;;;;;;8.68;67.39;101762.25;5004562;28;20086;-61
2024/01/23 01:22:38;;;;;;;18.50;3.95;;;;;;;8.67;66.54;101772.47;5014427;28;20028;-60
2024/01/23 01:25:04;;;;;;;16.17;4.03;;;;;;;8.67;66.64;101785.47;5021669;28;20029;-60
2024/01/23 01:27:29;;;;;;;12.32;3.38;;;;;;;8.63;66.32;101790.59;5026988;28;20041;-60
2024/01/23 01:29:55;;;;;;;18.50;4.07;;;;;;;8.60;66.43;101786.31;5019041;28;20393;-60
2024/01/23 01:32:20;;;;;;;12.38;3.50;;;;;;;8.60;66.57;101797.38;5009150;28;20377;-60
2024/01/23 01:34:45;;;;;;;16.67;3.35;;;;;;;8.65;66.76;101798.69;5008370;28;20022;-60
2024/01/23 01:37:11;;;;;;;21.30;3.67;;;;;;;8.63;66.62;101807.19;5009249;28;20030;-60
2024/01/23 01:39:37;;;;;;;18.05;3.65;;;;;;;8.55;66.05;101808.25;5007390;28;20057;-60
2024/01/23 01:42:02;;;;;;;16.15;3.60;;;;;;;8.53;66.38;101810.41;5026353;28;20023;-60
2024/01/23 01:44:29;;;;;;;22.00;4.07;;;;;;;8.48;67.09;101817.66;4993499;28;20043;-60
2024/01/23 01:46:54;;;;;;;19.27;4.30;;;;;;;8.39;66.97;101822.56;5000499;28;20072;-60
2024/01/23 01:49:20;;;;;;;19.17;3.90;;;;;;;8.43;67.28;101809.16;5008134;28;20034;-61
2024/01/23 01:51:47;;;;;;;17.45;4.10;;;;;;;8.46;67.37;101811.50;5008301;28;20041;-61
2024/01/23 01:54:12;;;;;;;13.32;4.07;;;;;;;8.48;66.93;101812.97;5010448;28;20469;-60
2024/01/23 01:56:40;;;;;;;13.70;3.15;;;;;;;8.46;66.61;101815.09;5019132;28;20034;-60
2024/01/23 01:59:05;;;;;;;20.90;4.30;;;;;;;8.43;66.96;101834.91;5007267;28;20033;-60
2024/01/23 02:01:31;;;;;;;18.85;3.85;;;;;;;8.46;66.59;101845.53;5013893;28;20087;-60
2024/01/23 02:03:56;;;;;;;18.20;3.95;;;;;;;8.44;67.10;101855.97;4996562;28;20037;-60
2024/01/23 02:06:22;;;;;;;14.95;3.03;;;;;;;8.44;66.75;101864.25;5007854;28;20061;-60
2024/01/23 02:08:49;;;;;;;19.10;3.72;;;;;;;8.49;66.84;101860.84;5003689;28;20125;-61
2024/01/23 02:11:14;;;;;;;15.85;4.07;;;;;;;8.47;67.45;101866.59;4998359;28;20376;-61
2024/01/23 02:13:40;;;;;;;17.98;4.07;;;;;;;8.46;67.25;101873.22;4990003;28;20026;-60
2024/01/23 02:16:07;;;;;;;21.13;4.30;;;;;;;8.41;66.47;101880.44;5002193;28;20038;-60
2024/01/23 02:18:32;;;;;;;20.98;3.67;;;;;;;8.41;67.42;101877.66;5008180;28;20110;-60
2024/01/23 02:20:58;;;;;;;14.82;3.85;;;;;;;8.41;67.27;101880.44;5007735;28;20112;-61
2024/01/23 02:23:30;;;;;;;19.80;4.10;;;;;;;8.44;67.14;101869.78;5007247;28;20026;-60
2024/01/23 02:25:55;;;;;;;17.33;3.85;;;;;;;8.35;67.14;101880.19;5008199;28;20048;-60
2024/01/23 02:28:21;;;;;;;22.75;4.35;;;;;;;8.36;67.56;101881.03;4997747;28;20029;-60
2024/01/23 02:30:46;;;;;;;13.43;3.30;;;;;;;8.36;67.30;101892.09;5008485;28;20056;-60
2024/01/23 02:33:12;;;;;;;17.38;3.90;;;;;;;8.38;67.49;101901.09;5008017;28;20090;-60
2024/01/23 02:35:37;;;;;;;19.33;4.07;;;;;;;8.36;67.11;101903.19;5008014;28;20046;-60
2024/01/23 02:38:03;;;;;;;17.48;3.67;;;;;;;8.38;67.71;101908.56;5007424;28;20473;-60
2024/01/23 02:40:29;;;;;;;14.45;3.40;;;;;;;8.35;67.26;101913.41;5008856;28;20037;-61
2024/01/23 02:42:54;;;;;;;15.32;3.95;;;;;;;8.31;67.29;101925.09;5010536;28;20500;-61
2024/01/23 02:45:20;;;;;;;18.45;4.10;;;;;;;8.37;67.72;101929.84;5018109;28;20054;-60
2024/01/23 02:47:45;;;;;;;19.50;3.92;;;;;;;8.32;67.72;101937.84;5013395;28;20037;-60
2024/01/23 02:50:11;;;;;;;19.02;4.35;;;;;;;8.30;67.46;101934.47;5009709;28;20022;-60
2024/01/23 02:52:36;;;;;;;15.23;3.95;;;;;;;8.26;67.50;101942.34;5010882;28;20030;-60
2024/01/23 02:55:03;;;;;;;16.38;3.78;;;;;;;8.30;67.98;101940.00;5018269;28;20071;-60
2024/01/23 02:57:28;;;;;;;23.73;4.75;;;;;;;8.29;67.94;101933.63;5013697;28;20025;-60
2024/01/23 02:59:55;;;;;;;21.02;4.03;;;;;;;8.26;67.92;101947.03;5010450;28;20034;-60
2024/01/23 03:02:21;;;;;;;19.02;3.60;;;;;;;8.27;67.77;101974.47;5010629;28;20528;-60
2024/01/23 03:04:47;;;;;;;17.92;4.13;;;;;;;8.27;67.83;101976.38;4999096;28;20097;-60
2024/01/23 03:07:13;;;;;;;20.98;3.88;;;;;;;8.28;67.64;101972.53;5007676;28;20429;-60
2024/01/23 03:09:38;;;;;;;17.48;3.88;;;;;;;8.30;67.48;101976.81;5014312;28;20471;-60
2024/01/23 03:12:22;;;;;;;21.10;4.05;;;;;;;8.32;68.01;101984.88;5013581;28;20022;-60
2024/01/23 03:14:49;;;;;;;20.17;4.22;;;;;;;8.29;67.71;101985.31;5010048;28;20471;-60
2024/01/23 03:17:15;;;;;;;20.23;4.28;;;;;;;8.32;68.39;101993.19;5010322;28;20041;-60
2024/01/23 03:19:41;;;;;;;19.38;4.82;;;;;;;8.30;67.71;101990.66;5010428;28;20038;-60
2024/01/23 03:22:07;;;;;;;17.52;3.92;;;;;;;8.31;67.59;101997.88;5005031;28;20480;-61
2024/01/23 03:24:33;;;;;;;18.13;4.30;;;;;;;8.31;67.81;102008.09;4994507;28;20045;-60
2024/01/23 03:26:58;;;;;;;16.45;3.47;;;;;;;8.35;68.42;102014.91;5023256;28;20033;-61
2024/01/23 03:29:24;;;;;;;19.67;4.50;;;;;;;8.32;67.78;102015.31;5011075;28;20481;-60
2024/01/23 03:31:50;;;;;;;21.52;4.43;;;;;;;8.34;67.56;102016.81;5010332;28;20117;-60
2024/01/23 03:34:15;;;;;;;23.13;4.43;;;;;;;8.30;67.93;102006.38;5009264;28;20034;-60
2024/01/23 03:36:41;;;;;;;20.30;3.95;;;;;;;8.31;67.67;102011.69;5014046;28;20033;-60
2024/01/23 03:39:07;;;;;;;24.73;5.15;;;;;;;8.31;68.34;102013.63;5037687;28;20028;-60
2024/01/23 03:41:32;;;;;;;17.85;4.13;;;;;;;8.29;67.64;102012.97;5019705;28;20049;-60
2024/01/23 03:43:58;;;;;;;19.85;3.33;;;;;;;8.25;68.00;102014.44;5010976;28;20022;-60
2024/01/23 03:46:24;;;;;;;24.02;4.65;;;;;;;8.24;67.76;102015.50;5009779;28;20137;-60
2024/01/23 03:48:50;;;;;;;17.65;3.75;;;;;;;8.23;68.08;102027.66;5010127;28;20458;-60
2024/01/23 03:51:15;;;;;;;17.45;3.72;;;;;;;8.22;68.39;102026.78;5014360;28;20029;-60
2024/01/23 03:53:40;;;;;;;16.90;3.65;;;;;;;8.21;68.09;102038.91;5029173;28;20350;-60
2024/01/23 03:56:06;;;;;;;16.63;4.28;;;;;;;8.21;68.33;102043.59;5024379;28;20144;-60
2024/01/23 03:58:31;;;;;;;23.63;4.85;;;;;;;8.18;67.93;102053.16;5009638;28;20037;-60
2024/01/23 04:00:59;;;;;;;16.10;4.05;;;;;;;8.16;67.56;102074.63;5016657;28;20108;-60
2024/01/23 04:03:25;;;;;;;22.02;4.50;;;;;;;8.18;67.83;102063.38;5021860;28;20083;-60
2024/01/23 04:05:50;;;;;;;19.83;4.55;;;;;;;8.19;67.79;102073.38;5012480;28;20033;-60
2024/01/23 04:08:15;;;;;;;25.55;3.80;;;;;;;8.18;68.02;102071.69;5009244;28;20107;-60
2024/01/23 04:10:41;;;;;;;24.33;3.95;;;;;;;8.15;67.73;102070.16;5009290;28;20017;-60
2024/01/23 04:13:06;;;;;;;20.35;4.63;;;;;;;8.09;67.71;102071.84;5002871;28;20010;-60
2024/01/23 04:15:31;;;;;;;23.27;4.95;;;;;;;8.07;67.44;102071.19;5014474;28;20488;-60
2024/01/23 04:17:56;;;;;;;14.85;3.80;;;;;;;8.08;68.17;102074.81;5009561;28;20108;-60
2024/01/23 04:20:22;;;;;;;19.50;4.28;;;;;;;8.06;68.07;102077.81;5008977;28;20022;-60
2024/01/23 04:22:47;;;;;;;18.75;3.83;;;;;;;8.05;67.58;102076.06;5008614;28;20018;-60
2024/01/23 04:25:12;;;;;;;24.40;4.22;;;;;;;8.03;67.50;102077.34;5009139;28;20037;-60
2024/01/23 04:27:38;;;;;;;26.45;5.07;;;;;;;8.03;67.59;102086.50;5009304;28;20053;-61
2024/01/23 04:30:03;;;;;;;20.55;4.10;;;;;;;8.01;67.58;102085.84;5011514;28;20030;-60
2024/01/23 04:32:29;;;;;;;18.27;3.83;;;;;;;8.03;68.18;102094.81;5009748;28;20036;-60
2024/01/23 04:34:54;;;;;;;20.73;4.45;;;;;;;8.02;67.32;102095.03;5008827;28;20021;-60
2024/01/23 04:37:19;;;;;;;18.63;4.03;;;;;;;8.00;67.79;102106.25;5027582;28;20467;-60
2024/01/23 04:39:45;;;;;;;20.73;4.55;;;;;;;8.00;68.03;102119.25;5009077;28;20034;-60
2024/01/23 04:42:10;;;;;;;16.73;4.93;;;;;;;8.00;67.00;102133.06;5009174;28;20061;-60
2024/01/23 04:44:35;;;;;;;19.55;4.57;;;;;;;7.99;67.84;102137.75;5008178;28;20470;-60
2024/01/23 04:47:00;;;;;;;23.13;4.50;;;;;;;8.00;67.78;102141.34;5008299;28;20046;-60
2024/01/23 04:49:26;;;;;;;21.25;3.92;;;;;;;7.99;67.66;102151.56;5010182;28;20037;-60
2024/01/23 04:51:51;;;;;;;19.80;4.25;;;;;;;7.98;67.99;102163.69;5009169;28;20098;-60
2024/01/23 04:54:16;;;;;;;18.35;4.07;;;;;;;7.95;68.04;102169.63;5008946;28;20469;-60
2024/01/23 04:56:42;;;;;;;19.42;3.70;;;;;;;7.96;67.67;102160.25;5007847;28;20113;-60
2024/01/23 04:59:07;;;;;;;17.20;4.32;;;;;;;7.95;67.86;102161.34;5008953;28;20488;-60
2024/01/23 05:01:32;;;;;;;19.35;4.18;;;;;;;7.89;67.69;102162.13;5008085;28;20030;-60
2024/01/23 05:03:58;;;;;;;21.58;4.32;;;;;;;7.93;67.87;102168.09;5023774;28;20034;-60
2024/01/23 05:06:23;;;;;;;19.48;4.20;;;;;;;7.92;67.64;102158.97;4998710;28;20640;-59
2024/01/23 05:08:49;;;;;;;17.85;4.28;;;;;;;7.88;67.09;102177.88;5016255;28;20017;-59
2024/01/23 05:11:14;;;;;;;15.70;3.92;;;;;;;7.86;67.88;102190.22;5008257;28;20022;-59
2024/01/23 05:13:42;;;;;;;20.08;4.13;;;;;;;7.89;67.46;102206.38;5009276;28;20034;-60
2024/01/23 05:16:08;;;;;;;18.20;4.45;;;;;;;7.87;67.26;102201.03;5007554;28;20030;-60
2024/01/23 05:18:33;;;;;;;18.00;4.35;;;;;;;7.86;67.90;102220.63;5008212;28;20041;-60
2024/01/23 05:20:58;;;;;;;19.95;4.25;;;;;;;7.86;67.70;102223.38;5011938;28;20049;-60
2024/01/23 05:23:25;;;;;;;17.55;4.35;;;;;;;7.85;67.73;102219.72;5006763;28;20030;-59
2024/01/23 05:25:51;;;;;;;18.15;5.68;;;;;;;7.80;67.52;102218.63;5014921;28;20055;-60
2024/01/23 05:28:16;;;;;;;23.73;4.97;;;;;;;7.79;67.95;102217.78;5012742;28;20038;-60
2024/01/23 05:30:42;;;;;;;18.63;3.92;;;;;;;7.80;67.57;102226.94;5013535;28;20029;-60
2024/01/23 05:33:07;;;;;;;20.05;4.40;;;;;;;7.78;67.49;102235.44;5013794;28;20022;-60
2024/01/23 05:35:32;;;;;;;22.55;4.60;;;;;;;7.77;67.62;102238.38;5016065;28;20098;-60
2024/01/23 05:37:58;;;;;;;21.35;4.40;;;;;;;7.74;67.58;102236.91;5056058;28;20023;-60
2024/01/23 05:40:23;;;;;;;21.90;4.03;;;;;;;7.76;67.38;102237.53;5055274;28;20041;-60
2024/01/23 05:42:48;;;;;;;19.45;4.18;;;;;;;7.75;67.40;102246.03;5008029;28;20075;-60
2024/01/23 05:45:13;;;;;;;26.92;4.72;;;;;;;7.72;67.48;102251.97;5048480;28;20042;-60
2024/01/23 05:47:39;;;;;;;20.92;4.72;;;;;;;7.67;67.63;102254.47;5025050;28;20032;-60
2024/01/23 05:50:05;;;;;;;17.13;4.07;;;;;;;7.69;68.23;102261.50;5025254;28;20032;-60
2024/01/23 05:52:30;;;;;;;20.50;4.22;;;;;;;7.72;68.53;102274.06;5012743;28;20029;-60
2024/01/23 05:54:56;;;;;;;21.77;4.93;;;;;;;7.65;68.08;102281.44;5027252;28;20116;-60
2024/01/23 05:57:21;;;;;;;17.98;4.13;;;;;;;7.67;67.95;102284.88;5015217;28;20026;-60
2024/01/23 05:59:46;;;;;;;23.02;5.22;;;;;;;7.65;67.95;102284.19;5055271;28;20024;-60
2024/01/23 06:02:12;;;;;;;17.98;4.68;;;;;;;7.65;68.45;102290.59;5013729;28;20384;-60
2024/01/23 06:04:37;;;;;;;27.27;4.65;;;;;;;7.69;68.54;102293.81;5023849;28;20022;-60
2024/01/23 06:07:06;;;;;;;23.25;4.25;;;;;;;7.70;67.89;102301.88;5013888;28;20025;-60
2024/01/23 06:09:31;;;;;;;13.35;3.40;;;;;;;7.67;68.36;102295.94;5014206;28;20037;-60
2024/01/23 06:11:56;;;;;;;20.48;5.15;;;;;;;7.67;68.03;102296.78;5016321;28;20042;-60
2024/01/23 06:14:22;;;;;;;25.83;4.55;;;;;;;7.65;67.85;102290.59;5008030;28;20030;-60
2024/01/23 06:16:47;;;;;;;26.83;4.50;;;;;;;7.62;68.49;102300.16;5010825;28;20033;-60
2024/01/23 06:19:12;;;;;;;20.15;3.83;;;;;;;7.62;68.95;102300.16;5010806;28;20022;-60
2024/01/23 06:21:38;;;;;;;21.92;4.72;;;;;;;7.66;68.78;102308.00;5014376;28;20486;-60
2024/01/23 06:24:04;;;;;;;25.33;4.70;;;;;;;7.58;68.36;102304.38;5019642;28;20113;-60
2024/01/23 06:26:29;;;;;;;22.40;4.80;;;;;;;7.62;68.62;102310.31;4991719;28;20069;-60
2024/01/23 06:28:55;;;;;;;19.70;4.30;;;;;;;7.61;68.47;102306.69;4991495;28;20054;-60
2024/01/23 06:31:25;;;;;;;19.13;4.45;;;;;;;7.53;68.38;102317.03;5002418;28;20037;-60
2024/01/23 06:33:51;;;;;;;17.85;4.65;;;;;;;7.56;69.10;102319.41;5011303;28;20087;-60
2024/01/23 06:36:16;;;;;;;19.60;4.38;;;;;;;7.59;68.52;102321.78;5012262;28;20038;-60
2024/01/23 06:38:42;;;;;;;20.38;4.72;;;;;;;7.57;68.56;102324.72;5030755;28;20037;-60
2024/01/23 06:41:07;;;;;;;18.35;5.22;;;;;;;7.60;68.81;102337.31;5007208;28;20033;-60
2024/01/23 06:43:32;;;;;;;16.58;3.85;;;;;;;7.60;68.25;102340.06;5013529;28;20077;-60
2024/01/23 06:45:59;;;;;;;23.17;4.93;;;;;;;7.56;68.52;102338.75;5009256;28;20069;-60
2024/01/23 06:48:25;;;;;;;22.77;4.35;;;;;;;7.55;68.29;102340.66;5016241;28;20499;-60
2024/01/23 06:50:50;;;;;;;22.73;4.90;;;;;;;7.54;68.48;102347.22;5013156;28;20030;-60
2024/01/23 06:53:15;;;;;;;19.40;4.47;;;;;;;7.51;68.60;102339.34;5012881;28;20113;-60
2024/01/23 06:55:41;;;;;;;17.63;4.35;;;;;;;7.53;68.59;102347.44;5010598;28;20026;-60
2024/01/23 06:58:06;;;;;;;23.15;5.88;;;;;;;7.52;68.27;102356.78;5001851;28;20030;-59
2024/01/23 07:00:33;;;;;;;19.63;3.97;;;;;;;7.51;68.59;102357.84;5022135;28;21087;-59
2024/01/23 07:02:58;;;;;;;25.23;4.65;;;;;;;7.53;68.63;102352.97;5009013;28;20501;-60
2024/01/23 07:05:23;;;;;;;24.23;5.15;;;;;;;7.44;68.79;102352.22;5010627;28;20116;-59
2024/01/23 07:07:49;;;;;;;22.63;4.28;;;;;;;7.41;68.75;102360.06;5009930;28;20029;-59
2024/01/23 07:10:14;;;;;;;21.70;4.90;;;;;;;7.42;69.00;102351.56;5008048;28;20034;-59
2024/01/23 07:12:39;;;;;;;20.17;4.30;;;;;;;7.39;68.60;102354.75;5009763;28;20030;-59
2024/01/23 07:15:05;;;;;;;23.83;4.53;;;;;;;7.43;68.68;102353.28;4998573;28;20490;-60
2024/01/23 07:17:30;;;;;;;22.02;4.22;;;;;;;7.40;68.62;102356.44;5006871;28;20065;-60
2024/01/23 07:19:55;;;;;;;18.17;3.88;;;;;;;7.44;68.94;102363.28;5010396;28;20022;-59
2024/01/23 07:22:21;;;;;;;21.40;4.65;;;;;;;7.42;68.81;102368.13;5009261;28;20030;-59
2024/01/23 07:24:46;;;;;;;19.25;4.30;;;;;;;7.42;68.04;102367.28;5008837;28;20037;-59
2024/01/23 07:27:11;;;;;;;20.45;4.78;;;;;;;7.42;68.42;102381.94;5010420;28;20541;-59
2024/01/23 07:29:38;;;;;;;16.90;4.45;;;;;;;7.40;68.28;102381.31;5002810;28;20033;-60
2024/01/23 07:32:04;;;;;;;26.83;5.85;;;;;;;7.41;68.57;102391.28;5024301;28;20020;-60
2024/01/23 07:34:30;;;;;;;18.08;4.95;;;;;;;7.41;68.22;102391.28;5002037;28;20029;-61
2024/01/23 07:36:55;;;;;;;18.23;4.40;;;;;;;7.39;68.32;102385.13;5006349;28;20034;-62
2024/01/23 07:39:21;;;;;;;19.67;4.97;;;;;;;7.41;67.99;102401.50;5019296;28;20041;-61
2024/01/23 07:41:47;;;;;;;18.02;4.40;;;;;;;7.42;67.79;102395.75;5008401;28;20379;-60
2024/01/23 07:44:12;;;;;;;21.95;5.22;;;;;;;7.37;68.34;102403.78;5020542;28;20036;-60
2024/01/23 07:46:37;;;;;;;18.35;4.18;;;;;;;7.35;68.46;102401.22;5006627;28;20037;-60
2024/01/23 07:49:03;;;;;;;20.45;4.63;;;;;;;7.34;68.18;102393.97;5004433;28;20048;-60
2024/01/23 07:51:28;;;;;;;18.38;4.28;;;;;;;7.33;68.81;102397.78;4990442;28;20022;-60
2024/01/23 07:53:54;;;;;;;17.83;4.85;;;;;;;7.34;68.42;102401.41;5001526;28;20022;-60
2024/01/23 07:56:19;;;;;;;19.05;4.35;;;;;;;7.31;68.80;102402.66;4994054;28;20030;-60
2024/01/23 07:58:45;;;;;;;13.07;4.40;;;;;;;7.38;69.24;102411.00;5001292;28;20037;-60
2024/01/23 08:01:10;;;;;;;19.50;4.30;;;;;;;7.33;68.83;102413.50;5006121;28;20049;-60
2024/01/23 08:03:35;;;;;;;15.20;4.15;;;;;;;7.34;68.46;102423.50;5006354;28;20426;-60
2024/01/23 08:06:00;;;;;;;25.98;5.15;;;;;;;7.32;69.21;102425.63;5010423;28;20527;-60
2024/01/23 08:08:28;;;;;;;20.80;4.85;;;;;;;7.30;67.96;102428.56;5023276;28;20508;-59
2024/01/23 08:10:53;;;;;;;20.25;5.15;;;;;;;7.29;68.63;102434.28;5004726;28;20026;-59
2024/01/23 08:13:20;;;;;;;24.38;6.22;;;;;;;7.28;68.60;102438.09;5006668;28;20037;-60
2024/01/23 08:15:46;;;;;;;25.73;6.90;;;;;;;7.28;69.05;102449.16;5011282;28;20034;-60
2024/01/23 08:18:13;;;;;;;25.40;5.63;;;;;;;7.25;69.24;102458.66;5002861;28;20009;-59
2024/01/23 08:20:38;;;;;;;26.08;5.65;;;;;;;7.24;69.32;102443.16;5009352;28;20384;-59
2024/01/23 08:23:03;;;;;;;20.95;6.53;;;;;;;7.22;68.92;102472.00;5010868;28;20025;-60
2024/01/23 08:25:29;;;;;;;23.85;5.60;;;;;;;7.22;69.83;102467.31;5016004;28;20528;-59
2024/01/23 08:27:54;;;;;;;25.15;5.50;;;;;;;7.21;69.96;102462.00;5010788;28;20022;-60
2024/01/23 08:30:20;;;;;;;24.25;4.65;;;;;;;7.17;69.27;102463.44;5007043;28;20470;-60
2024/01/23 08:32:46;;;;;;;21.13;4.57;;;;;;;7.21;69.34;102476.66;5013239;28;20112;-60
2024/01/23 08:35:11;;;;;;;22.30;4.95;;;;;;;7.19;69.97;102486.19;5004411;28;20045;-60
2024/01/23 08:37:36;;;;;;;22.10;5.30;;;;;;;7.19;69.65;102492.59;5005009;28;20054;-60
2024/01/23 08:40:02;;;;;;;23.45;4.95;;;;;;;7.20;69.61;102493.44;5013597;28;20058;-60
2024/01/23 08:42:28;;;;;;;20.67;4.50;;;;;;;7.20;69.41;102498.97;5013444;28;20029;-59
2024/01/23 08:44:55;;;;;;;18.58;4.30;;;;;;;7.23;69.60;102499.44;5008585;28;20049;-60
2024/01/23 08:47:20;;;;;;;20.38;4.78;;;;;;;7.19;70.07;102506.41;5016722;28;20124;-60
2024/01/23 08:49:45;;;;;;;20.27;5.25;;;;;;;7.25;70.01;102513.91;5014726;28;20140;-60
2024/01/23 08:52:11;;;;;;;19.10;4.75;;;;;;;7.29;70.03;102514.38;5014198;28;20389;-60
2024/01/23 08:54:36;;;;;;;19.60;4.78;;;;;;;7.28;70.30;102510.75;5027882;28;20065;-60
2024/01/23 08:57:02;;;;;;;21.73;4.90;;;;;;;7.29;69.69;102511.63;5062816;28;20022;-60
2024/01/23 08:59:28;;;;;;;19.52;4.68;;;;;;;7.27;70.04;102514.59;5008254;28;20054;-61
2024/01/23 09:01:54;;;;;;;17.40;4.38;;;;;;;7.32;69.24;102514.84;5017110;28;20530;-59
2024/01/23 09:04:19;;;;;;;26.13;5.47;;;;;;;7.33;69.73;102519.31;5004327;28;20034;-59
2024/01/23 09:06:45;;;;;;;19.10;4.72;;;;;;;7.35;69.82;102510.88;5005648;28;20360;-60
2024/01/23 09:09:10;;;;;;;19.02;4.47;;;;;;;7.34;70.20;102501.69;4998136;28;20037;-59
2024/01/23 09:11:36;;;;;;;22.02;5.57;;;;;;;7.31;69.68;102504.88;4988206;28;20031;-59
2024/01/23 09:14:01;;;;;;;20.92;4.88;;;;;;;7.29;70.02;102500.56;5027799;28;20155;-60
2024/01/23 09:16:26;;;;;;;17.85;4.85;;;;;;;7.33;70.29;102513.81;5001965;28;20045;-59
2024/01/23 09:18:52;;;;;;;25.50;5.30;;;;;;;7.36;69.35;102513.44;4995848;28;20117;-60
2024/01/23 09:21:17;;;;;;;21.52;5.18;;;;;;;7.37;69.65;102519.81;5008702;28;20029;-60
2024/01/23 09:23:43;;;;;;;20.77;5.47;;;;;;;7.37;69.75;102514.28;5026411;28;20026;-59
2024/01/23 09:26:11;;;;;;;21.85;5.18;;;;;;;7.39;69.89;102520.47;5018892;28;20033;-60
2024/01/23 09:28:37;;;;;;;20.17;5.63;;;;;;;7.43;70.43;102508.00;5007836;28;20041;-60
2024/01/23 09:31:02;;;;;;;24.58;5.20;;;;;;;7.44;69.30;102511.63;5022528;28;20018;-60
2024/01/23 09:33:27;;;;;;;21.45;5.30;;;;;;;7.45;69.88;102514.19;5020339;28;20478;-59
2024/01/23 09:35:53;;;;;;;17.88;4.85;;;;;;;7.50;69.43;102508.91;5009593;28;20026;-60
2024/01/23 09:38:18;;;;;;;17.15;4.80;;;;;;;7.50;69.96;102502.53;5028363;28;20081;-59
2024/01/23 09:40:49;;;;;;;20.27;5.15;;;;;;;7.55;69.74;102503.69;5015131;28;20060;-60
2024/01/23 09:43:16;;;;;;;16.95;4.97;;;;;;;7.61;69.73;102507.59;5021145;28;20120;-60
2024/01/23 09:45:43;;;;;;;20.33;5.22;;;;;;;7.67;69.72;102509.59;5001186;28;20038;-59
2024/01/23 09:48:09;;;;;;;20.90;4.50;;;;;;;7.75;69.71;102508.63;5008014;28;20537;-60
2024/01/23 09:50:36;;;;;;;23.30;4.72;;;;;;;7.84;69.18;102511.06;4995201;28;20117;-59
2024/01/23 09:53:03;;;;;;;27.05;5.85;;;;;;;7.96;69.10;102507.78;4994938;28;20029;-60
2024/01/23 09:55:29;;;;;;;22.60;5.80;;;;;;;8.05;68.97;102506.59;5011053;28;20034;-59
2024/01/23 09:57:54;;;;;;;22.05;5.10;;;;;;;8.14;68.64;102515.66;5011051;28;20077;-60
2024/01/23 10:00:20;;;;;;;29.38;5.20;;;;;;;8.24;68.08;102508.72;5009257;28;20072;-60
2024/01/23 10:02:46;;;;;;;20.60;4.90;;;;;;;8.32;68.18;102513.28;5008501;28;20044;-59
2024/01/23 10:05:14;;;;;;;25.17;5.70;;;;;;;8.39;67.77;102514.22;5015177;28;20466;-60
2024/01/23 10:07:40;;;;;;;18.73;4.63;;;;;;;8.48;67.73;102514.94;5009864;28;20045;-59
2024/01/23 10:10:25;;;;;;;21.92;5.30;;;;;;;8.60;68.03;102522.50;5010914;28;20402;-60
2024/01/23 10:12:50;;;;;;;21.67;4.95;;;;;;;8.69;67.15;102520.47;5010160;28;20026;-60
2024/01/23 10:15:22;;;;;;;22.15;4.97;;;;;;;8.75;66.82;102524.34;5010938;28;20492;-60
2024/01/23 10:17:48;;;;;;;20.80;5.20;;;;;;;8.81;66.50;102523.56;5012153;28;20064;-60
2024/01/23 10:20:14;;;;;;;22.92;4.90;;;;;;;8.85;66.05;102530.41;4990404;28;20038;-60
2024/01/23 10:22:39;;;;;;;16.85;4.68;;;;;;;8.93;66.07;102526.63;4991126;28;20092;-60
2024/01/23 10:25:14;;;;;;;25.00;5.40;;;;;;;8.99;66.14;102523.88;5007999;28;20095;-60
2024/01/23 10:27:39;;;;;;;22.17;4.85;;;;;;;9.07;65.67;102518.19;5009959;28;20091;-60
2024/01/23 10:30:05;;;;;;;20.88;4.57;;;;;;;9.13;65.71;102507.38;5026176;28;20406;-60
2024/01/23 10:32:30;;;;;;;22.90;5.35;;;;;;;9.21;65.50;102521.06;5030361;28;20036;-60
2024/01/23 10:34:56;;;;;;;23.92;5.05;;;;;;;9.26;65.50;102521.31;5036167;28;20388;-60
2024/01/23 10:37:21;;;;;;;19.38;4.97;;;;;;;9.29;65.22;102520.91;5004458;28;20116;-60
2024/01/23 10:39:53;;;;;;;20.20;4.40;;;;;;;9.18;64.33;102516.78;5010519;28;20022;-60
2024/01/23 10:42:19;;;;;;;18.85;4.93;;;;;;;9.25;65.08;102525.16;5009744;28;20032;-60
2024/01/23 10:44:48;;;;;;;22.23;4.75;;;;;;;9.28;65.11;102531.13;4990570;28;20046;-60
2024/01/23 10:47:15;;;;;;;28.25;5.40;;;;;;;9.32;64.51;102528.81;4990882;28;20061;-60
2024/01/23 10:49:42;;;;;;;27.33;5.70;;;;;;;9.31;64.70;102521.53;4990052;28;20046;-59
2024/01/23 10:52:09;;;;;;;23.13;5.53;;;;;;;9.30;64.40;102517.91;5005818;28;20461;-60
2024/01/23 10:54:42;;;;;;;27.10;5.90;;;;;;;9.28;64.96;102514.50;5000289;28;20048;-60
2024/01/23 10:57:12;;;;;;;19.83;4.60;;;;;;;9.28;64.59;102510.88;5011581;28;20110;-60
2024/01/23 10:59:38;;;;;;;24.40;4.85;;;;;;;9.29;64.76;102505.13;5036147;28;20055;-60
2024/01/23 11:02:20;;;;;;;23.05;5.20;;;;;;;9.36;64.89;102505.19;5027134;28;20030;-60
2024/01/23 11:04:46;;;;;;;23.85;5.50;;;;;;;9.43;64.44;102503.31;5076911;28;20483;-60
2024/01/23 11:07:18;;;;;;;19.25;4.65;;;;;;;9.40;64.57;102506.47;5043535;28;20116;-60
2024/01/23 11:09:54;;;;;;;;;;;;;;;9.46;65.71;102502.88;5039032;28;20104;-60
2024/01/23 11:12:33;;;;;;;23.05;5.25;;;;;;;9.32;64.91;102501.97;5079406;28;19927;-60
2024/01/23 11:15:09;;;;;;;20.05;4.63;;;;;;;9.27;64.71;102489.75;5022971;28;20025;-60
2024/01/23 11:17:35;;;;;;;19.00;5.20;;;;;;;9.21;64.45;102482.28;5047711;28;20034;-60